Time;durP1;ratioP1;P1;durP2;ratioP2;P2;SDS_P1;SDS_P2;PMS_P1;PMS_P2;Temp;Humidity;BMP_temperature;BMP_pressure;BME280_temperature;BME280_humidity;BME280_pressure;Samples;Min_cycle;Max_cycle;Signal;HPM_P1;HPM_P2
2022/07/06 00:01:25;;;;;;;2.65;0.80;;;;;;;26.33;35.82;102592.19;6246746;23;20443;-42
2022/07/06 00:03:53;;;;;;;4.70;0.98;;;;;;;26.28;35.86;102588.56;6246535;23;20010;-43
2022/07/06 00:06:21;;;;;;;3.40;0.95;;;;;;;26.31;35.78;102591.28;6219838;23;20004;-43
2022/07/06 00:08:50;;;;;;;5.97;1.02;;;;;;;26.32;35.93;102593.03;6194985;23;20375;-42
2022/07/06 00:11:18;;;;;;;2.05;0.80;;;;;;;26.29;35.78;102595.63;6246441;23;20004;-44
2022/07/06 00:13:47;;;;;;;4.57;0.90;;;;;;;26.21;36.12;102596.28;6219819;23;20028;-42
2022/07/06 00:16:15;;;;;;;1.45;0.80;;;;;;;26.23;36.08;102591.94;6247160;23;20004;-48
2022/07/06 00:18:43;;;;;;;4.30;0.90;;;;;;;26.18;35.91;102592.66;6219978;23;20011;-44
2022/07/06 00:21:11;;;;;;;4.20;1.10;;;;;;;26.20;36.02;102596.25;6246694;23;20067;-45
2022/07/06 00:23:39;;;;;;;4.32;1.08;;;;;;;26.23;36.05;102602.47;6219863;23;20420;-47
2022/07/06 00:26:08;;;;;;;1.70;0.70;;;;;;;26.20;35.98;102593.63;6246473;23;20075;-43
2022/07/06 00:28:36;;;;;;;2.72;0.90;;;;;;;26.17;35.91;102602.28;6246530;23;20008;-43
2022/07/06 00:31:05;;;;;;;4.20;1.00;;;;;;;26.18;36.02;102588.28;6219788;23;20079;-46
2022/07/06 00:33:34;;;;;;;3.47;1.30;;;;;;;26.19;36.19;102605.84;6246289;23;20075;-44
2022/07/06 00:36:02;;;;;;;3.60;0.90;;;;;;;26.08;35.92;102583.56;6244676;23;20075;-44
2022/07/06 00:38:30;;;;;;;2.72;0.70;;;;;;;26.17;35.73;102596.16;6218542;23;20016;-45
2022/07/06 00:40:59;;;;;;;3.08;0.85;;;;;;;26.21;36.07;102619.94;6219429;23;20015;-43
2022/07/06 00:43:27;;;;;;;2.67;0.88;;;;;;;26.14;36.16;102614.47;6246136;23;20506;-43
2022/07/06 00:45:56;;;;;;;3.25;1.02;;;;;;;26.23;35.91;102612.09;6219710;23;20043;-41
2022/07/06 00:48:24;;;;;;;2.70;0.95;;;;;;;26.17;36.15;102619.81;6244677;23;20024;-43
2022/07/06 00:50:53;;;;;;;2.30;0.63;;;;;;;26.04;36.33;102608.91;6194546;23;20007;-43
2022/07/06 00:53:22;;;;;;;1.95;0.63;;;;;;;26.10;36.10;102618.72;6246305;23;20058;-43
2022/07/06 00:55:51;;;;;;;1.98;0.70;;;;;;;26.09;36.37;102616.94;6244368;23;20079;-43
2022/07/06 00:58:19;;;;;;;4.47;1.10;;;;;;;26.07;36.52;102608.09;6246038;23;20483;-46
2022/07/06 01:00:48;;;;;;;1.50;0.70;;;;;;;26.02;36.38;102607.06;6219290;23;20201;-43
2022/07/06 01:03:17;;;;;;;2.17;0.65;;;;;;;26.01;36.49;102603.53;6245838;23;20142;-45
2022/07/06 01:05:46;;;;;;;2.53;0.77;;;;;;;26.07;36.55;102601.06;6245408;23;20374;-43
2022/07/06 01:08:16;;;;;;;3.78;1.10;;;;;;;26.11;36.54;102609.06;6246366;23;20078;-45
2022/07/06 01:10:45;;;;;;;4.78;0.80;;;;;;;26.00;36.57;102591.25;6245570;23;20083;-42
2022/07/06 01:13:12;;;;;;;1.15;0.50;;;;;;;26.00;36.51;102593.88;6219898;23;20024;-42
2022/07/06 01:15:40;;;;;;;3.33;0.80;;;;;;;26.07;36.33;102605.47;6246154;23;20046;-41
2022/07/06 01:18:12;;;;;;;1.88;0.65;;;;;;;26.02;36.30;102602.69;6245339;23;20039;-42
2022/07/06 01:20:40;;;;;;;2.60;0.80;;;;;;;26.03;36.49;102603.56;6245844;23;19993;-43
2022/07/06 01:23:09;;;;;;;2.65;1.10;;;;;;;26.01;36.40;102595.66;6193986;23;20054;-42
2022/07/06 01:25:37;;;;;;;3.95;0.95;;;;;;;26.05;36.54;102601.88;6246100;23;20008;-42
2022/07/06 01:28:06;;;;;;;4.43;0.90;;;;;;;26.06;36.32;102604.56;6219118;23;20099;-43
2022/07/06 01:30:34;;;;;;;2.42;1.00;;;;;;;26.12;36.29;102593.38;6194269;23;20007;-42
2022/07/06 01:33:03;;;;;;;2.25;0.55;;;;;;;26.03;36.13;102587.78;6244070;23;20012;-45
2022/07/06 01:35:34;;;;;;;4.70;1.13;;;;;;;26.04;36.23;102598.38;6245973;23;20006;-42
2022/07/06 01:38:02;;;;;;;1.90;0.73;;;;;;;25.94;36.42;102570.91;6245434;23;20111;-42
2022/07/06 01:40:30;;;;;;;2.20;0.70;;;;;;;26.05;36.73;102594.91;6245520;23;20423;-43
2022/07/06 01:42:59;;;;;;;2.13;0.55;;;;;;;25.98;36.45;102589.41;6245683;23;20012;-42
2022/07/06 01:45:28;;;;;;;4.63;0.90;;;;;;;26.01;36.57;102593.03;6219119;23;20065;-43
2022/07/06 01:47:56;;;;;;;0.95;0.60;;;;;;;26.03;36.67;102588.72;6244241;23;20008;-42
2022/07/06 01:50:25;;;;;;;2.95;1.10;;;;;;;26.00;36.38;102596.50;6245611;23;20092;-42
2022/07/06 01:52:53;;;;;;;1.27;0.60;;;;;;;25.98;36.24;102581.53;6245696;23;20015;-42
2022/07/06 01:55:22;;;;;;;1.65;0.57;;;;;;;26.01;36.23;102595.66;6194228;23;20012;-42
2022/07/06 01:57:50;;;;;;;2.97;0.77;;;;;;;25.99;36.65;102584.19;6245124;23;20000;-42
2022/07/06 02:00:19;;;;;;;2.40;0.90;;;;;;;25.92;36.64;102575.22;6245538;23;20060;-42
2022/07/06 02:02:48;;;;;;;2.80;0.70;;;;;;;25.82;36.62;102560.00;6245663;23;20004;-42
2022/07/06 02:05:16;;;;;;;1.75;0.90;;;;;;;25.90;36.75;102579.56;6245920;23;20013;-44
2022/07/06 02:07:45;;;;;;;2.45;0.57;;;;;;;25.93;36.75;102579.66;6219818;23;20008;-43
2022/07/06 02:10:13;;;;;;;1.77;0.80;;;;;;;25.98;36.37;102585.03;6246080;23;20090;-43
2022/07/06 02:12:42;;;;;;;4.05;0.80;;;;;;;25.96;36.52;102591.97;6245473;23;20004;-42
2022/07/06 02:15:10;;;;;;;2.10;0.73;;;;;;;25.77;36.51;102567.75;6245832;23;20011;-44
2022/07/06 02:17:39;;;;;;;1.85;0.68;;;;;;;25.98;36.32;102594.69;6245341;23;20051;-42
2022/07/06 02:20:08;;;;;;;1.85;0.60;;;;;;;25.96;36.74;102597.25;6245531;23;20015;-44
2022/07/06 02:22:36;;;;;;;2.50;0.68;;;;;;;25.93;36.59;102595.44;6247297;23;20019;-43
2022/07/06 02:25:05;;;;;;;2.70;0.85;;;;;;;25.95;36.66;102595.47;6220793;23;20061;-43
2022/07/06 02:27:33;;;;;;;3.70;0.60;;;;;;;25.94;36.36;102591.94;6221066;23;20000;-42
2022/07/06 02:30:02;;;;;;;1.55;0.68;;;;;;;25.88;36.37;102581.22;6221636;23;20000;-42
2022/07/06 02:32:30;;;;;;;1.85;0.60;;;;;;;26.00;36.34;102596.50;6247253;23;20004;-42
2022/07/06 02:34:59;;;;;;;1.35;0.32;;;;;;;25.96;36.10;102588.47;6245771;23;20010;-42
2022/07/06 02:37:27;;;;;;;2.33;0.80;;;;;;;25.83;36.16;102574.06;6220827;23;20032;-47
2022/07/06 02:39:56;;;;;;;2.30;0.60;;;;;;;25.81;36.11;102566.13;6220301;23;20447;-43
2022/07/06 02:42:24;;;;;;;1.70;0.52;;;;;;;25.93;36.16;102584.91;6220487;23;20004;-43
2022/07/06 02:44:54;;;;;;;1.55;0.50;;;;;;;25.90;36.30;102579.56;6247745;23;20004;-43
2022/07/06 02:47:23;;;;;;;3.13;0.70;;;;;;;25.87;36.33;102582.06;6247813;23;20130;-42
2022/07/06 02:49:51;;;;;;;2.15;0.68;;;;;;;25.87;36.19;102574.19;6220580;23;20056;-44
2022/07/06 02:52:20;;;;;;;1.30;0.70;;;;;;;25.85;36.15;102582.88;6220652;23;20087;-43
2022/07/06 02:54:48;;;;;;;1.60;0.68;;;;;;;25.89;36.27;102584.78;6246996;23;20000;-42
2022/07/06 02:57:16;;;;;;;1.92;0.85;;;;;;;25.82;36.34;102575.78;6247313;23;20008;-43
2022/07/06 02:59:45;;;;;;;0.88;0.52;;;;;;;25.82;36.20;102569.66;6220810;23;20304;-42
2022/07/06 03:02:14;;;;;;;6.43;0.60;;;;;;;25.83;36.10;102569.69;6247347;23;20428;-42
2022/07/06 03:04:41;;;;;;;2.50;0.80;;;;;;;25.84;36.16;102581.97;6247388;23;20004;-43
2022/07/06 03:07:10;;;;;;;1.45;0.52;;;;;;;25.77;36.13;102567.75;6220287;23;20004;-42
2022/07/06 03:09:38;;;;;;;1.58;0.80;;;;;;;25.84;36.04;102566.22;6247127;23;20018;-42
2022/07/06 03:12:07;;;;;;;1.70;0.60;;;;;;;25.85;36.15;102575.00;6219987;23;20082;-44
2022/07/06 03:14:36;;;;;;;1.92;0.60;;;;;;;25.85;36.09;102583.75;6220388;23;20102;-42
2022/07/06 03:17:04;;;;;;;2.00;0.52;;;;;;;25.81;36.06;102578.38;6246756;23;20008;-44
2022/07/06 03:19:33;;;;;;;1.60;0.52;;;;;;;25.80;36.36;102582.75;6220363;23;20014;-43
2022/07/06 03:22:02;;;;;;;3.47;0.60;;;;;;;25.72;36.02;102571.09;6220681;23;20086;-42
2022/07/06 03:24:30;;;;;;;1.15;0.60;;;;;;;25.77;36.29;102580.03;6220292;23;20074;-48
2022/07/06 03:26:59;;;;;;;4.63;0.40;;;;;;;25.60;36.13;102567.25;6220173;23;20015;-43
2022/07/06 03:29:27;;;;;;;1.17;0.52;;;;;;;25.58;36.33;102570.66;6195207;23;20054;-42
2022/07/06 03:31:56;;;;;;;1.67;0.60;;;;;;;25.68;36.19;102582.34;6246816;23;20396;-43
2022/07/06 03:34:24;;;;;;;1.45;0.60;;;;;;;25.77;35.91;102594.03;6245523;23;20431;-42
2022/07/06 03:36:53;;;;;;;1.23;0.60;;;;;;;25.63;36.37;102580.50;6245165;23;20005;-43
2022/07/06 03:39:22;;;;;;;1.73;0.57;;;;;;;25.63;36.20;102593.63;6219710;23;20058;-43
2022/07/06 03:41:50;;;;;;;1.80;0.55;;;;;;;25.61;36.26;102605.81;6220266;23;20004;-49
2022/07/06 03:44:19;;;;;;;0.95;0.50;;;;;;;25.69;36.10;102608.69;6246720;23;20071;-44
2022/07/06 03:46:47;;;;;;;1.52;0.60;;;;;;;25.74;35.92;102600.94;6244770;23;20008;-44
2022/07/06 03:49:16;;;;;;;1.10;0.50;;;;;;;25.76;35.90;102615.03;6246668;23;20008;-47
2022/07/06 03:51:44;;;;;;;1.33;0.50;;;;;;;25.72;35.78;102610.53;6246245;23;20028;-43
2022/07/06 03:54:13;;;;;;;1.02;0.45;;;;;;;25.61;35.91;102608.47;6247324;23;20011;-45
2022/07/06 03:56:42;;;;;;;2.78;0.75;;;;;;;25.48;36.26;102601.03;6246485;23;20083;-46
2022/07/06 03:59:10;;;;;;;0.65;0.43;;;;;;;25.54;36.14;102608.22;6246410;23;20004;-50
2022/07/06 04:01:39;;;;;;;2.35;0.52;;;;;;;25.59;35.95;102612.78;6246319;23;20000;-45
2022/07/06 04:04:07;;;;;;;1.38;0.40;;;;;;;25.62;35.63;102617.22;6246667;23;20004;-46
2022/07/06 04:06:36;;;;;;;2.92;0.60;;;;;;;25.63;35.33;102622.53;6246282;23;20431;-46
2022/07/06 04:09:04;;;;;;;1.25;0.57;;;;;;;25.70;35.46;102627.97;6246305;23;20431;-45
2022/07/06 04:11:33;;;;;;;1.95;0.60;;;;;;;25.58;35.67;102618.88;6246493;23;20008;-46
2022/07/06 04:14:01;;;;;;;2.15;0.57;;;;;;;25.36;35.64;102596.22;6245153;23;20111;-43
2022/07/06 04:16:30;;;;;;;2.22;0.63;;;;;;;25.50;35.58;102622.09;6246084;23;20334;-49
2022/07/06 04:18:58;;;;;;;1.67;0.50;;;;;;;25.45;35.81;102614.06;6246015;23;20003;-45
2022/07/06 04:21:27;;;;;;;0.70;0.47;;;;;;;25.49;35.75;102626.44;6246092;23;20069;-43
2022/07/06 04:23:55;;;;;;;1.05;0.40;;;;;;;25.50;35.84;102629.97;6246318;23;20050;-45
2022/07/06 04:26:24;;;;;;;2.95;0.70;;;;;;;25.47;35.54;102631.66;6219713;23;20118;-46
2022/07/06 04:28:53;;;;;;;3.25;0.80;;;;;;;25.46;35.68;102626.34;6246684;23;20431;-46
2022/07/06 04:31:21;;;;;;;4.13;0.77;;;;;;;25.43;35.69;102626.25;6245820;23;20011;-43
2022/07/06 04:33:50;;;;;;;1.23;0.50;;;;;;;25.39;35.63;102629.56;6245874;23;20004;-43
2022/07/06 04:36:18;;;;;;;1.67;0.63;;;;;;;25.40;35.52;102623.47;6245923;23;20028;-47
2022/07/06 04:38:47;;;;;;;2.10;0.52;;;;;;;25.33;35.78;102630.25;6245461;23;20099;-46
2022/07/06 04:41:15;;;;;;;1.35;0.43;;;;;;;25.32;35.64;102629.34;6245961;23;20004;-48
2022/07/06 04:43:44;;;;;;;2.20;0.65;;;;;;;25.27;35.55;102633.59;6245567;23;20058;-47
2022/07/06 04:46:13;;;;;;;1.15;0.40;;;;;;;25.28;35.60;102635.38;6219453;23;20004;-47
2022/07/06 04:48:42;;;;;;;1.60;0.47;;;;;;;25.30;35.66;102635.41;6246176;23;20034;-46
2022/07/06 04:51:10;;;;;;;1.67;0.75;;;;;;;25.32;35.69;102629.34;6245984;23;20012;-44
2022/07/06 04:53:38;;;;;;;2.08;0.68;;;;;;;25.25;35.94;102626.47;6244719;23;20004;-44
2022/07/06 04:56:07;;;;;;;2.15;0.68;;;;;;;25.22;35.82;102624.66;6245669;23;20004;-46
2022/07/06 04:58:35;;;;;;;0.75;0.40;;;;;;;25.27;35.86;102625.69;6245577;23;20308;-43
2022/07/06 05:01:04;;;;;;;1.00;0.47;;;;;;;25.22;35.77;102629.91;6246056;23;20004;-45
2022/07/06 05:03:35;;;;;;;0.75;0.40;;;;;;;25.29;35.60;102626.66;6245864;23;20372;-43
2022/07/06 05:06:02;;;;;;;1.40;0.55;;;;;;;25.27;35.81;102620.44;6246249;23;20004;-49
2022/07/06 05:08:31;;;;;;;1.60;0.70;;;;;;;25.24;35.79;102619.44;6246075;23;20264;-45
2022/07/06 05:10:59;;;;;;;3.38;0.77;;;;;;;25.27;35.96;102614.28;6245735;23;20008;-42
2022/07/06 05:13:28;;;;;;;1.83;0.68;;;;;;;25.28;35.71;102616.97;6245729;23;20509;-43
2022/07/06 05:15:56;;;;;;;3.33;0.95;;;;;;;25.31;35.91;102618.81;6245432;23;20016;-45
2022/07/06 05:18:25;;;;;;;2.47;0.80;;;;;;;25.21;35.80;102622.84;6245433;23;20000;-43
2022/07/06 05:20:53;;;;;;;6.00;1.08;;;;;;;25.08;35.82;102597.91;6245575;23;20008;-45
2022/07/06 05:23:20;;;;;;;2.05;0.60;;;;;;;25.19;35.59;102621.91;6246109;23;20004;-44
2022/07/06 05:25:47;;;;;;;0.93;0.40;;;;;;;25.16;35.69;102608.66;6219481;23;20043;-46
2022/07/06 05:28:16;;;;;;;4.70;0.55;;;;;;;25.24;35.79;102628.22;6245873;23;20038;-43
2022/07/06 05:30:44;;;;;;;2.08;0.80;;;;;;;25.13;36.29;102613.84;6245762;23;20004;-43
2022/07/06 05:33:12;;;;;;;1.48;0.60;;;;;;;25.29;35.97;102625.75;6245728;23;20202;-45
2022/07/06 05:35:40;;;;;;;2.25;0.70;;;;;;;25.33;36.15;102632.88;6245325;23;20336;-43
2022/07/06 05:38:07;;;;;;;1.88;0.60;;;;;;;25.39;36.02;102637.44;6245044;23;20016;-44
2022/07/06 05:40:35;;;;;;;2.38;0.80;;;;;;;25.40;35.81;102632.25;6245582;23;20039;-44
2022/07/06 05:43:04;;;;;;;1.35;0.60;;;;;;;25.36;35.93;102632.09;6246188;23;19996;-43
2022/07/06 05:45:32;;;;;;;1.42;0.47;;;;;;;25.56;35.86;102638.06;6246105;23;20004;-45
2022/07/06 05:50:47;;;;;;;2.05;0.82;;;;;;;25.71;35.55;102642.91;6228438;23;20475;-43
2022/07/06 05:53:16;;;;;;;2.03;0.60;;;;;;;25.68;35.48;102625.31;6244975;23;20004;-46
2022/07/06 05:55:44;;;;;;;3.30;0.40;;;;;;;25.75;35.77;102637.78;6246031;23;20050;-45
2022/07/06 05:58:12;;;;;;;0.20;0.20;;;;;;;25.84;35.32;102645.06;6221273;23;20004;-48
2022/07/06 06:00:40;;;;;;;0.85;0.30;;;;;;;25.83;35.85;102640.66;6246671;23;20004;-43
2022/07/06 06:03:09;;;;;;;3.83;0.55;;;;;;;25.88;35.98;102641.72;6246248;23;20000;-45
2022/07/06 06:05:37;;;;;;;1.15;0.60;;;;;;;25.91;35.72;102644.44;6246849;23;20090;-44
2022/07/06 06:08:06;;;;;;;1.98;0.43;;;;;;;26.04;35.55;102652.69;6245705;23;20004;-45
2022/07/06 06:10:35;;;;;;;5.00;0.60;;;;;;;26.01;35.93;102648.25;6246745;23;20008;-46
2022/07/06 06:13:03;;;;;;;3.20;0.60;;;;;;;26.13;35.78;102657.38;6247490;23;20007;-44
2022/07/06 06:15:32;;;;;;;1.20;0.50;;;;;;;26.03;35.56;102630.78;6221459;23;20386;-45
2022/07/06 06:17:59;;;;;;;1.10;0.43;;;;;;;26.25;35.86;102652.50;6247106;23;20001;-48
2022/07/06 06:20:28;;;;;;;1.25;0.40;;;;;;;26.20;36.06;102655.00;6247982;23;20000;-43
2022/07/06 06:22:58;;;;;;;2.65;0.50;;;;;;;26.23;36.00;102648.91;6247706;23;20026;-47
2022/07/06 06:25:32;;;;;;;1.40;0.50;;;;;;;26.32;36.20;102645.66;6247246;23;20058;-46
2022/07/06 06:28:01;;;;;;;3.03;0.40;;;;;;;26.38;36.15;102654.66;6247701;23;20000;-48
2022/07/06 06:30:30;;;;;;;1.75;0.47;;;;;;;26.44;36.21;102651.31;6247156;23;20001;-46
2022/07/06 06:33:07;;;;;;;1.90;0.40;;;;;;;26.46;36.25;102643.44;6247430;23;20032;-46
2022/07/06 06:35:35;;;;;;;1.48;0.50;;;;;;;26.50;36.02;102640.94;6247446;23;20000;-48
2022/07/06 06:38:03;;;;;;;0.90;0.47;;;;;;;26.57;36.05;102639.38;6247263;23;20039;-44
2022/07/06 06:40:31;;;;;;;1.52;0.60;;;;;;;26.53;36.16;102637.53;6247570;23;20011;-43
2022/07/06 06:42:59;;;;;;;1.80;0.60;;;;;;;26.59;36.46;102648.22;6247492;23;20020;-44
2022/07/06 06:45:28;;;;;;;1.17;0.40;;;;;;;26.63;36.53;102649.22;6247038;23;20004;-43
2022/07/06 06:47:57;;;;;;;6.43;0.50;;;;;;;26.67;36.43;102651.97;6247458;23;20036;-45
2022/07/06 06:50:25;;;;;;;1.88;0.50;;;;;;;26.73;36.58;102663.50;6246841;23;20008;-44
2022/07/06 06:52:54;;;;;;;2.55;0.40;;;;;;;26.79;36.49;102654.09;6247068;23;20062;-48
2022/07/06 06:55:23;;;;;;;2.13;0.38;;;;;;;26.83;36.41;102663.84;6247130;23;20006;-43
2022/07/06 06:57:51;;;;;;;0.88;0.43;;;;;;;26.85;36.47;102661.28;6246778;23;20075;-43
2022/07/06 07:00:20;;;;;;;0.47;0.40;;;;;;;26.81;36.92;102655.00;6246845;23;20327;-45
2022/07/06 07:02:48;;;;;;;3.08;0.70;;;;;;;26.90;36.75;102658.75;6246816;23;20005;-46
2022/07/06 07:05:17;;;;;;;1.63;0.22;;;;;;;26.93;36.76;102649.19;6247178;23;20004;-45
2022/07/06 07:07:46;;;;;;;0.47;0.30;;;;;;;27.02;36.53;102643.28;6246672;23;20004;-47
2022/07/06 07:10:14;;;;;;;1.63;0.43;;;;;;;27.08;36.81;102647.81;6246677;23;20028;-51
2022/07/06 07:12:51;;;;;;;1.33;0.88;;;;;;;27.09;36.55;102645.22;6246989;23;20008;-44
2022/07/06 07:15:20;;;;;;;3.38;0.80;;;;;;;27.10;36.77;102641.75;6246407;23;20312;-47
2022/07/06 07:17:48;;;;;;;0.82;0.70;;;;;;;27.14;36.70;102640.06;6246540;23;20007;-44
2022/07/06 07:20:17;;;;;;;2.45;0.50;;;;;;;27.24;36.65;102647.34;6246676;23;20084;-44
2022/07/06 07:22:46;;;;;;;2.53;0.63;;;;;;;27.27;36.40;102643.94;6246737;23;20000;-45
2022/07/06 07:25:14;;;;;;;1.38;0.50;;;;;;;27.31;36.58;102637.84;6220411;23;20000;-49
2022/07/06 07:27:43;;;;;;;1.00;0.45;;;;;;;27.36;36.71;102638.88;6247158;23;20008;-43
2022/07/06 07:30:11;;;;;;;0.75;0.30;;;;;;;27.42;36.73;102643.41;6246808;23;20011;-46
2022/07/06 07:32:40;;;;;;;0.98;0.43;;;;;;;27.47;36.92;102636.53;6219913;23;20015;-46
2022/07/06 07:35:09;;;;;;;3.10;0.63;;;;;;;27.54;36.57;102648.13;6246884;23;20004;-49
2022/07/06 07:37:38;;;;;;;0.80;0.60;;;;;;;27.63;36.42;102637.81;6246265;23;20086;-47
2022/07/06 07:40:07;;;;;;;0.77;0.40;;;;;;;27.68;36.20;102648.47;6246256;23;20023;-49
2022/07/06 07:42:35;;;;;;;3.38;0.57;;;;;;;27.67;36.53;102649.31;6246604;23;20450;-47
2022/07/06 07:45:04;;;;;;;0.43;0.40;;;;;;;27.68;36.42;102649.34;6246795;23;20011;-46
2022/07/06 07:47:33;;;;;;;0.98;0.40;;;;;;;27.74;36.23;102645.97;6219851;23;20028;-45
2022/07/06 07:50:01;;;;;;;2.45;0.40;;;;;;;27.77;36.16;102643.41;6219043;23;20001;-46
2022/07/06 07:52:30;;;;;;;2.63;0.70;;;;;;;27.80;36.38;102656.66;6246586;23;20091;-44
2022/07/06 07:54:59;;;;;;;4.07;0.68;;;;;;;27.84;36.25;102653.25;6246700;23;20000;-45
2022/07/06 07:57:28;;;;;;;2.00;0.45;;;;;;;27.90;36.09;102652.50;6246480;23;20007;-43
2022/07/06 07:59:55;;;;;;;1.42;0.70;;;;;;;27.96;36.20;102659.66;6246573;23;20004;-43
2022/07/06 08:02:24;;;;;;;0.40;0.32;;;;;;;27.98;36.08;102650.91;6246032;23;20007;-44
2022/07/06 08:04:52;;;;;;;0.57;0.50;;;;;;;28.05;36.03;102655.47;6246156;23;20394;-44
2022/07/06 08:07:21;;;;;;;1.98;0.52;;;;;;;28.03;36.30;102656.31;6245853;23;20031;-46
2022/07/06 08:09:49;;;;;;;1.58;0.60;;;;;;;28.09;36.01;102647.63;6245116;23;20000;-43
2022/07/06 08:12:18;;;;;;;2.70;0.60;;;;;;;28.14;35.90;102641.63;6246064;23;20004;-46
2022/07/06 08:14:46;;;;;;;0.63;0.60;;;;;;;28.12;36.09;102642.47;6245739;23;20431;-44
2022/07/06 08:17:15;;;;;;;2.35;0.52;;;;;;;28.17;36.12;102648.72;6245831;23;20051;-47
2022/07/06 08:19:42;;;;;;;3.75;0.50;;;;;;;28.20;35.94;102648.78;6246269;23;20008;-44
2022/07/06 08:22:11;;;;;;;0.70;0.40;;;;;;;28.22;36.12;102640.88;6246069;23;20450;-44
2022/07/06 08:24:38;;;;;;;1.85;0.60;;;;;;;28.26;35.93;102645.38;6246161;23;20039;-43
2022/07/06 08:27:06;;;;;;;1.55;0.63;;;;;;;28.30;36.13;102645.47;6246308;23;20004;-44
2022/07/06 08:29:34;;;;;;;2.33;0.68;;;;;;;28.37;35.78;102635.97;6245891;23;20381;-45
2022/07/06 08:32:03;;;;;;;1.75;0.73;;;;;;;28.37;35.84;102635.97;6246056;23;20079;-44
2022/07/06 08:34:30;;;;;;;2.03;0.50;;;;;;;28.41;35.69;102640.41;6219994;23;20087;-46
2022/07/06 08:36:58;;;;;;;1.27;0.50;;;;;;;28.41;35.81;102642.19;6246077;23;20007;-44
2022/07/06 08:39:26;;;;;;;1.45;0.55;;;;;;;28.46;35.63;102635.25;6219021;23;20043;-45
2022/07/06 08:41:55;;;;;;;1.38;0.63;;;;;;;28.47;35.67;102637.91;6219511;23;20008;-46
2022/07/06 08:44:26;;;;;;;2.10;0.60;;;;;;;28.50;35.93;102640.63;6244885;23;20011;-43
2022/07/06 08:46:56;;;;;;;1.13;0.60;;;;;;;28.48;35.80;102633.50;6244960;23;20000;-43
2022/07/06 08:49:26;;;;;;;3.17;0.63;;;;;;;28.56;35.63;102628.38;6246706;23;20004;-43
2022/07/06 08:51:54;;;;;;;0.50;0.45;;;;;;;28.56;35.82;102617.81;6246077;23;20011;-43
2022/07/06 08:54:23;;;;;;;1.25;0.60;;;;;;;28.65;35.74;102637.38;6219428;23;20038;-43
2022/07/06 08:56:53;;;;;;;0.70;0.50;;;;;;;28.69;35.76;102635.72;6219948;23;20034;-44
2022/07/06 08:59:21;;;;;;;0.30;0.30;;;;;;;28.73;35.44;102631.38;6219833;23;20372;-43
2022/07/06 09:01:50;;;;;;;0.77;0.45;;;;;;;28.77;35.56;102635.91;6219202;23;20012;-44
2022/07/06 09:04:19;;;;;;;0.63;0.32;;;;;;;28.75;35.44;102637.63;6246019;23;20008;-43
2022/07/06 09:06:48;;;;;;;1.30;0.52;;;;;;;28.77;35.54;102630.63;6218759;23;20001;-44
2022/07/06 09:09:22;;;;;;;0.50;0.20;;;;;;;28.80;35.52;102628.00;6220005;23;20011;-43
2022/07/06 09:11:50;;;;;;;0.40;0.40;;;;;;;28.81;35.01;102616.56;6219571;23;20015;-43
2022/07/06 09:14:19;;;;;;;1.27;0.60;;;;;;;28.85;35.23;102625.47;6246344;23;20004;-43
2022/07/06 09:16:52;;;;;;;0.55;0.50;;;;;;;28.90;35.15;102622.03;6245945;23;20059;-43
2022/07/06 09:19:21;;;;;;;0.73;0.47;;;;;;;28.89;35.27;102622.91;6246275;23;20004;-43
2022/07/06 09:21:49;;;;;;;0.88;0.57;;;;;;;28.95;35.69;102636.25;6245561;23;20071;-44
2022/07/06 09:24:18;;;;;;;0.68;0.50;;;;;;;28.88;35.64;102622.84;6246113;23;20095;-46
2022/07/06 09:26:48;;;;;;;0.95;0.50;;;;;;;28.98;35.22;102640.69;6219387;23;20122;-43
2022/07/06 09:29:16;;;;;;;1.23;0.60;;;;;;;29.03;35.01;102649.59;6246095;23;20015;-46
2022/07/06 09:32:01;;;;;;;0.55;0.50;;;;;;;29.04;35.49;102653.09;6218801;23;20477;-43
2022/07/06 09:34:43;;;;;;;0.77;0.38;;;;;;;29.07;34.88;102664.59;6246016;23;20036;-43
2022/07/06 09:37:12;;;;;;;0.50;0.40;;;;;;;29.10;34.87;102664.66;6245806;23;20007;-43
2022/07/06 09:39:40;;;;;;;0.40;0.40;;;;;;;29.13;34.88;102670.88;6245678;23;20055;-43
2022/07/06 09:42:09;;;;;;;0.63;0.47;;;;;;;29.12;34.99;102656.78;6245996;23;20008;-43
2022/07/06 09:44:39;;;;;;;1.35;0.63;;;;;;;29.14;35.33;102651.50;6218451;23;20015;-43
2022/07/06 09:47:10;;;;;;;0.95;0.50;;;;;;;29.14;35.19;102656.81;6246326;23;20000;-44
2022/07/06 09:49:39;;;;;;;2.08;0.90;;;;;;;29.15;35.12;102643.59;6244647;23;20027;-47
2022/07/06 09:52:09;;;;;;;1.13;0.70;;;;;;;29.20;35.35;102659.56;6218965;23;20070;-43
2022/07/06 09:54:40;;;;;;;0.63;0.45;;;;;;;29.22;34.99;102665.72;6244204;23;20062;-43
2022/07/06 09:57:09;;;;;;;1.48;0.70;;;;;;;29.18;35.23;102648.06;6245232;23;20010;-45
2022/07/06 09:59:37;;;;;;;1.17;0.50;;;;;;;29.30;35.13;102660.59;6245863;23;20012;-45
2022/07/06 10:02:08;;;;;;;1.25;0.45;;;;;;;29.26;34.94;102665.84;6244149;23;20004;-44
2022/07/06 10:04:37;;;;;;;0.30;0.30;;;;;;;29.28;34.99;102668.50;6246235;23;20012;-43
2022/07/06 10:07:05;;;;;;;2.13;0.55;;;;;;;29.26;35.12;102668.47;6245525;23;20008;-43
2022/07/06 10:09:33;;;;;;;0.80;0.60;;;;;;;29.32;35.21;102664.16;6245805;23;20012;-43
2022/07/06 10:12:03;;;;;;;0.60;0.55;;;;;;;29.30;35.03;102669.41;6218981;23;20039;-44
2022/07/06 10:14:32;;;;;;;1.90;0.60;;;;;;;29.30;34.92;102665.88;6245967;23;20046;-44
2022/07/06 10:17:02;;;;;;;2.53;0.55;;;;;;;29.46;34.77;102678.50;6219324;23;20331;-43
2022/07/06 10:19:31;;;;;;;1.33;0.60;;;;;;;29.46;34.64;102680.28;6245734;23;20009;-46
2022/07/06 10:22:01;;;;;;;1.20;0.60;;;;;;;29.46;34.99;102682.94;6218536;23;20001;-44
2022/07/06 10:24:33;;;;;;;1.08;0.50;;;;;;;29.49;34.96;102681.22;6245790;23;20058;-43
2022/07/06 10:27:03;;;;;;;1.55;0.57;;;;;;;29.50;34.92;102672.41;6245344;23;20007;-44
2022/07/06 10:29:32;;;;;;;0.55;0.50;;;;;;;29.52;34.46;102669.81;6219801;23;20009;-44
2022/07/06 10:32:02;;;;;;;0.60;0.60;;;;;;;29.52;34.50;102662.75;6246144;23;20012;-44
2022/07/06 10:34:30;;;;;;;1.25;0.60;;;;;;;29.56;34.84;102663.69;6244299;23;20004;-44
2022/07/06 10:36:59;;;;;;;2.53;0.50;;;;;;;29.60;34.23;102665.53;6193876;23;20087;-42
2022/07/06 10:42:49;;;;;;;0.60;0.50;;;;;;;29.62;34.32;102660.28;6219355;23;20451;-42
2022/07/06 10:45:30;;;;;;;0.70;0.50;;;;;;;29.63;33.90;102660.28;6247244;23;20000;-42
2022/07/06 10:48:17;;;;;;;1.23;0.60;;;;;;;29.58;34.25;102654.03;6247548;23;20053;-42
2022/07/06 10:50:46;;;;;;;0.63;0.40;;;;;;;29.47;34.20;102631.84;6220539;23;20420;-43
2022/07/06 10:53:16;;;;;;;1.65;0.50;;;;;;;29.60;33.91;102657.59;6247191;23;20000;-42
2022/07/06 10:55:50;;;;;;;1.13;0.82;;;;;;;29.58;34.13;102661.97;6245082;23;20023;-43
2022/07/06 10:58:56;;;;;;;0.68;0.50;;;;;;;29.66;33.95;102672.66;6247456;23;20000;-43
2022/07/06 11:01:29;;;;;;;1.58;0.57;;;;;;;29.46;33.65;102667.94;6247446;23;20020;-42
2022/07/06 11:03:58;;;;;;;1.83;0.70;;;;;;;29.60;33.81;102667.31;6246997;23;20000;-44
2022/07/06 11:06:27;;;;;;;1.63;0.70;;;;;;;29.58;33.52;102669.03;6220307;23;20008;-43
2022/07/06 11:08:57;;;;;;;1.50;0.73;;;;;;;29.55;33.73;102662.81;6245585;23;20004;-42
2022/07/06 11:11:46;;;;;;;0.73;0.50;;;;;;;29.38;33.08;102649.31;6247542;23;20323;-43
2022/07/06 11:14:19;;;;;;;1.52;0.60;;;;;;;29.58;33.30;102653.16;6247319;23;20007;-42
2022/07/06 11:16:48;;;;;;;1.73;0.68;;;;;;;29.46;33.37;102656.50;6220765;23;20382;-43
2022/07/06 11:19:23;;;;;;;0.90;0.60;;;;;;;29.45;33.58;102654.72;6247081;23;20015;-43
2022/07/06 11:21:57;;;;;;;0.77;0.50;;;;;;;29.48;33.76;102654.75;6246779;23;20008;-43
2022/07/06 11:24:28;;;;;;;1.13;0.70;;;;;;;29.49;33.61;102644.19;6247329;23;20006;-43
2022/07/06 11:26:58;;;;;;;0.73;0.50;;;;;;;29.59;33.93;102658.47;6247051;23;20030;-42
2022/07/06 11:29:28;;;;;;;0.80;0.70;;;;;;;29.61;33.29;102645.28;6220364;23;20074;-42
2022/07/06 11:31:58;;;;;;;1.15;0.80;;;;;;;29.51;33.36;102639.81;6220292;23;20347;-43
2022/07/06 11:34:29;;;;;;;0.80;0.60;;;;;;;29.59;33.36;102649.66;6247024;23;20031;-43
2022/07/06 11:36:59;;;;;;;0.60;0.50;;;;;;;29.61;33.39;102664.66;6246486;23;20058;-43
2022/07/06 11:39:29;;;;;;;1.08;0.60;;;;;;;29.41;33.01;102644.06;6246856;23;20019;-43